Time;durP1;ratioP1;P1;durP2;ratioP2;P2;SDS_P1;SDS_P2;PMS_P1;PMS_P2;Temp;Humidity;BMP_temperature;BMP_pressure;BME280_temperature;BME280_humidity;BME280_pressure;Samples;Min_cycle;Max_cycle;Signal;HPM_P1;HPM_P2
2021/10/20 00:02:17;;;;;;;18.80;5.70;;;;;;;13.16;68.69;100435.04;113216;1197;22986;-56
2021/10/20 00:04:48;;;;;;;15.00;4.60;;;;;;;13.17;68.66;100433.47;113023;1198;22487;-54
2021/10/20 00:07:20;;;;;;;13.70;3.70;;;;;;;13.17;68.73;100437.35;113199;1196;22416;-57
2021/10/20 00:09:51;;;;;;;16.90;3.70;;;;;;;13.18;68.80;100435.73;113238;1198;22443;-55
2021/10/20 00:12:22;;;;;;;12.00;3.60;;;;;;;13.18;68.71;100431.54;113296;1197;22433;-56
2021/10/20 00:15:05;;;;;;;;;;;;;;;;;;;;;
2021/10/20 00:17:36;;;;;;;11.70;3.00;;;;;;;13.18;68.74;100423.23;113134;1198;24086;-57
2021/10/20 00:20:13;;;;;;;9.60;3.00;;;;;;;13.19;68.71;100422.11;113524;1196;22422;-59
2021/10/20 00:22:45;;;;;;;11.90;3.70;;;;;;;13.19;68.77;100418.19;113555;1196;22434;-57
2021/10/20 00:25:17;;;;;;;13.10;2.80;;;;;;;13.20;68.76;100416.93;113411;1190;25104;-55
2021/10/20 00:27:50;;;;;;;11.70;3.60;;;;;;;13.20;68.79;100415.36;113459;1197;25044;-56
2021/10/20 00:30:21;;;;;;;12.60;3.80;;;;;;;13.21;68.86;100408.59;113123;1189;22432;-59
2021/10/20 00:32:52;;;;;;;14.70;3.30;;;;;;;13.21;68.82;100409.31;113142;1198;22573;-59
2021/10/20 00:35:22;;;;;;;13.30;2.80;;;;;;;13.22;68.88;100407.16;113200;1190;22527;-56
2021/10/20 00:37:54;;;;;;;11.30;3.60;;;;;;;13.22;68.89;100398.31;113101;1198;22445;-54
2021/10/20 00:40:25;;;;;;;11.20;3.40;;;;;;;13.22;68.81;100392.80;113145;1190;22434;-56
2021/10/20 00:42:56;;;;;;;13.40;3.80;;;;;;;13.22;68.98;100388.21;113243;1190;22452;-58
2021/10/20 00:45:27;;;;;;;15.60;3.00;;;;;;;13.20;68.89;100381.58;113165;1196;24050;-54
2021/10/20 00:47:58;;;;;;;13.00;3.70;;;;;;;13.18;68.95;100376.65;113297;1196;22454;-59
2021/10/20 00:50:50;;;;;;;11.90;3.20;;;;;;;13.16;69.11;100377.66;113183;1196;22458;-56
2021/10/20 00:53:21;;;;;;;12.60;3.20;;;;;;;13.14;69.22;100365.51;113175;1197;22425;-60
2021/10/20 00:55:53;;;;;;;11.40;3.70;;;;;;;13.12;69.32;100359.30;113064;1198;22420;-56
2021/10/20 00:58:24;;;;;;;14.90;3.30;;;;;;;13.12;69.31;100356.00;113260;1198;22552;-55
2021/10/20 01:00:55;;;;;;;10.90;3.40;;;;;;;13.11;69.33;100348.35;113153;1183;24058;-56
2021/10/20 01:03:26;;;;;;;13.10;3.30;;;;;;;13.11;69.25;100345.55;113326;1196;24185;-54
2021/10/20 01:05:57;;;;;;;13.10;3.40;;;;;;;13.11;69.48;100343.46;113150;1197;22468;-58
2021/10/20 01:08:27;;;;;;;15.50;3.50;;;;;;;13.11;69.46;100340.75;113107;1197;22436;-56
2021/10/20 01:10:59;;;;;;;14.50;3.90;;;;;;;13.11;69.52;100338.56;113261;1190;22434;-56
2021/10/20 01:13:31;;;;;;;17.30;4.30;;;;;;;13.12;69.55;100342.13;113417;1196;22430;-58
2021/10/20 01:16:03;;;;;;;16.80;3.40;;;;;;;13.12;69.77;100339.79;113220;1190;25051;-58
2021/10/20 01:18:34;;;;;;;17.00;3.80;;;;;;;13.12;69.88;100342.86;113445;1196;22484;-56
2021/10/20 01:21:05;;;;;;;18.00;3.80;;;;;;;13.12;69.82;100337.39;113598;1197;25104;-57
2021/10/20 01:23:37;;;;;;;14.60;4.10;;;;;;;13.12;70.02;100342.13;113272;1197;22432;-54
2021/10/20 01:26:08;;;;;;;26.20;4.80;;;;;;;13.13;69.99;100339.69;113214;1196;25339;-57
2021/10/20 01:28:40;;;;;;;16.40;2.90;;;;;;;13.12;69.99;100339.55;113225;1198;22433;-56
2021/10/20 01:31:11;;;;;;;15.20;3.60;;;;;;;13.13;70.10;100337.82;113189;1196;22425;-57
2021/10/20 01:33:42;;;;;;;18.50;3.70;;;;;;;13.14;70.15;100335.42;113199;1196;22494;-56
2021/10/20 01:36:14;;;;;;;13.80;3.20;;;;;;;13.15;70.33;100333.95;113096;1197;22591;-55
2021/10/20 01:38:45;;;;;;;20.10;3.80;;;;;;;13.15;70.45;100330.03;113300;1197;22436;-57
2021/10/20 01:41:16;;;;;;;17.50;4.80;;;;;;;13.13;70.34;100320.19;113087;1197;24062;-56
2021/10/20 01:43:49;;;;;;;17.10;4.60;;;;;;;13.14;70.44;100321.05;113270;1189;22449;-53
2021/10/20 01:46:21;;;;;;;28.00;5.70;;;;;;;13.13;70.56;100314.84;113319;1196;22545;-57
2021/10/20 01:48:53;;;;;;;18.00;3.90;;;;;;;13.14;70.60;100311.58;113211;1196;22462;-56
2021/10/20 01:51:24;;;;;;;18.20;3.50;;;;;;;13.15;70.76;100314.08;113258;1198;25095;-56
2021/10/20 01:53:55;;;;;;;20.20;5.20;;;;;;;13.15;70.77;100311.64;113082;1198;25204;-58
2021/10/20 01:56:27;;;;;;;13.60;3.90;;;;;;;13.16;70.81;100311.30;113477;1196;22419;-55
2021/10/20 01:58:59;;;;;;;17.40;5.60;;;;;;;13.17;70.94;100314.67;113058;1198;24997;-57
2021/10/20 02:01:30;;;;;;;21.20;4.30;;;;;;;13.17;70.99;100314.16;113353;1196;25301;-56
2021/10/20 02:04:01;;;;;;;18.70;3.90;;;;;;;13.18;71.03;100310.90;113233;1197;22452;-57
2021/10/20 02:06:32;;;;;;;14.40;4.60;;;;;;;13.19;71.07;100310.20;113377;1196;25064;-55
2021/10/20 02:09:05;;;;;;;12.50;4.20;;;;;;;13.20;71.15;100306.08;113346;1196;23686;-60
2021/10/20 02:11:36;;;;;;;14.00;4.20;;;;;;;13.20;71.20;100301.39;113094;1189;25530;-54
2021/10/20 02:14:10;;;;;;;14.20;3.70;;;;;;;13.21;71.52;100300.02;113363;1190;22423;-55
2021/10/20 02:16:42;;;;;;;18.00;3.40;;;;;;;13.22;71.56;100299.05;113258;1198;24433;-53
2021/10/20 02:19:14;;;;;;;12.90;3.40;;;;;;;13.22;71.68;100291.77;113026;1198;22496;-55
2021/10/20 02:21:45;;;;;;;13.20;3.50;;;;;;;13.22;71.76;100292.07;113014;1198;22438;-57
2021/10/20 02:24:16;;;;;;;12.10;3.30;;;;;;;13.22;71.86;100284.53;113188;1190;24087;-57
2021/10/20 02:26:47;;;;;;;13.70;3.10;;;;;;;13.22;72.01;100282.20;113217;1198;22444;-56
2021/10/20 02:29:19;;;;;;;12.60;3.60;;;;;;;13.22;72.26;100279.70;113145;1190;22444;-57
2021/10/20 02:31:50;;;;;;;12.70;2.50;;;;;;;13.21;72.27;100273.16;113014;1190;22474;-57
2021/10/20 02:34:23;;;;;;;16.00;3.10;;;;;;;13.22;72.28;100271.18;113055;1190;25020;-59
2021/10/20 02:36:55;;;;;;;11.20;2.90;;;;;;;13.23;72.50;100269.81;113141;1197;22473;-57
2021/10/20 02:39:26;;;;;;;14.60;2.80;;;;;;;13.24;72.69;100265.39;113172;1196;25274;-56
2021/10/20 02:41:58;;;;;;;11.60;2.60;;;;;;;13.25;72.78;100256.83;113272;1197;22450;-57
2021/10/20 02:44:29;;;;;;;12.60;2.60;;;;;;;13.26;72.74;100262.20;113215;1190;25136;-54
2021/10/20 02:47:00;;;;;;;16.50;2.50;;;;;;;13.27;72.96;100263.16;113345;1197;23306;-57
2021/10/20 02:49:30;;;;;;;14.30;2.80;;;;;;;13.28;72.93;100263.59;113003;1198;22424;-56
2021/10/20 02:52:01;;;;;;;9.10;2.00;;;;;;;13.28;73.15;100257.72;113110;1198;24108;-57
2021/10/20 02:54:32;;;;;;;11.60;2.40;;;;;;;13.30;73.29;100255.30;113106;1197;22452;-58
2021/10/20 02:57:04;;;;;;;9.00;2.10;;;;;;;13.30;73.16;100250.55;113290;1196;22871;-58
2021/10/20 02:59:35;;;;;;;11.10;2.40;;;;;;;13.30;73.24;100248.63;113190;1197;22430;-56
2021/10/20 03:02:06;;;;;;;9.00;1.90;;;;;;;13.29;73.39;100249.73;113075;1198;22498;-56
2021/10/20 03:04:37;;;;;;;7.80;1.70;;;;;;;13.28;73.41;100247.23;113150;1190;25117;-60
2021/10/20 03:07:08;;;;;;;8.10;2.00;;;;;;;13.27;73.49;100243.55;113183;1190;22444;-57
2021/10/20 03:09:39;;;;;;;10.20;2.40;;;;;;;13.25;73.56;100243.38;113205;1197;22456;-57
2021/10/20 03:12:11;;;;;;;8.20;2.20;;;;;;;13.21;73.59;100238.00;113104;1198;22450;-56
2021/10/20 03:14:42;;;;;;;11.10;2.20;;;;;;;13.19;73.61;100234.36;113275;1197;22426;-57
2021/10/20 03:17:14;;;;;;;9.20;1.90;;;;;;;13.17;73.79;100232.36;113049;1198;22467;-60
2021/10/20 03:19:45;;;;;;;11.10;2.20;;;;;;;13.14;73.85;100231.11;113225;1198;24410;-57
2021/10/20 03:22:16;;;;;;;6.80;1.70;;;;;;;13.10;74.02;100227.81;113148;1198;22432;-55
2021/10/20 03:24:47;;;;;;;10.00;1.90;;;;;;;13.07;74.00;100229.63;113218;1190;22441;-55
2021/10/20 03:27:19;;;;;;;9.60;2.30;;;;;;;13.04;74.01;100228.98;113188;1190;22423;-56
2021/10/20 03:29:50;;;;;;;9.40;2.30;;;;;;;13.00;74.07;100228.88;113287;1196;22419;-56
2021/10/20 03:32:21;;;;;;;8.10;2.00;;;;;;;12.97;74.30;100228.23;113152;1189;26367;-61
2021/10/20 03:34:52;;;;;;;11.10;2.30;;;;;;;12.94;74.35;100226.77;113178;1197;24045;-54
2021/10/20 03:37:23;;;;;;;9.60;2.70;;;;;;;12.93;74.57;100217.89;113067;1197;26315;-56
2021/10/20 03:39:54;;;;;;;8.70;1.90;;;;;;;12.91;74.53;100218.05;113096;1197;25278;-56
2021/10/20 03:42:24;;;;;;;10.50;2.30;;;;;;;12.88;74.59;100221.52;113086;1190;22438;-54
2021/10/20 03:44:56;;;;;;;8.10;2.30;;;;;;;12.85;74.79;100221.80;113115;1197;25223;-54
2021/10/20 03:47:27;;;;;;;9.80;1.90;;;;;;;12.83;74.72;100226.02;113167;1196;25072;-54
2021/10/20 03:49:58;;;;;;;7.50;2.10;;;;;;;12.81;74.63;100226.40;113090;1198;24084;-57
2021/10/20 03:52:30;;;;;;;8.60;2.20;;;;;;;12.80;74.82;100231.94;112997;1198;22442;-54
2021/10/20 03:55:02;;;;;;;8.60;2.00;;;;;;;12.76;74.83;100226.50;113054;1197;22424;-55
2021/10/20 03:57:37;;;;;;;9.60;2.00;;;;;;;12.73;74.95;100224.69;113080;1190;22500;-55
2021/10/20 04:00:11;;;;;;;12.50;2.40;;;;;;;12.69;75.05;100223.48;113371;1196;28551;-56
2021/10/20 04:02:44;;;;;;;10.10;2.00;;;;;;;12.63;75.33;100223.11;113395;1196;25013;-55
2021/10/20 04:05:17;;;;;;;7.40;2.20;;;;;;;12.60;75.45;100224.70;113187;1197;22424;-56
2021/10/20 04:07:50;;;;;;;6.90;2.30;;;;;;;12.56;75.46;100223.80;113126;1198;25110;-54
2021/10/20 04:10:23;;;;;;;8.80;2.60;;;;;;;12.55;75.52;100224.20;113111;1198;23071;-54
2021/10/20 04:12:55;;;;;;;9.70;2.90;;;;;;;12.53;75.81;100224.58;113114;1190;24091;-54
2021/10/20 04:15:27;;;;;;;11.90;2.70;;;;;;;12.50;75.62;100227.35;113536;1196;25062;-55
2021/10/20 04:17:58;;;;;;;13.10;3.10;;;;;;;12.48;75.76;100224.21;113348;1198;26309;-54
2021/10/20 04:20:29;;;;;;;12.30;3.20;;;;;;;12.45;75.66;100224.45;113320;1189;22434;-54
2021/10/20 04:22:59;;;;;;;10.10;2.90;;;;;;;12.42;76.13;100218.76;113241;1196;24055;-55
2021/10/20 04:25:30;;;;;;;14.90;3.20;;;;;;;12.38;76.00;100216.94;113390;1190;22813;-55
2021/10/20 04:28:01;;;;;;;13.60;3.30;;;;;;;12.36;76.10;100217.58;113166;1196;22432;-55
2021/10/20 04:30:32;;;;;;;11.50;2.90;;;;;;;12.34;76.18;100216.17;113196;1197;22458;-57
2021/10/20 04:33:02;;;;;;;11.60;2.90;;;;;;;12.33;76.07;100212.70;113205;1196;22431;-53
2021/10/20 04:35:33;;;;;;;11.40;3.70;;;;;;;12.31;76.41;100214.81;113216;1196;22624;-56
2021/10/20 04:38:05;;;;;;;9.10;3.20;;;;;;;12.28;76.43;100214.46;113488;1196;23744;-56
2021/10/20 04:40:36;;;;;;;10.20;3.40;;;;;;;12.26;76.42;100205.49;113252;1196;22387;-54
2021/10/20 04:43:07;;;;;;;15.60;4.30;;;;;;;12.24;76.48;100204.20;113146;1196;22539;-57
2021/10/20 04:45:39;;;;;;;16.70;4.80;;;;;;;12.19;76.77;100201.96;113079;1198;26188;-54
2021/10/20 04:48:10;;;;;;;14.30;4.30;;;;;;;12.17;76.85;100198.67;113208;1190;25140;-56
2021/10/20 04:50:41;;;;;;;14.70;3.80;;;;;;;12.15;76.67;100194.08;113133;1198;25058;-55
2021/10/20 04:53:12;;;;;;;13.10;3.50;;;;;;;12.14;76.79;100191.98;113380;1190;22430;-57
2021/10/20 04:55:43;;;;;;;13.50;3.90;;;;;;;12.11;76.83;100199.51;113203;1190;22458;-56
2021/10/20 04:58:14;;;;;;;13.20;3.70;;;;;;;12.07;77.18;100201.92;113194;1196;25056;-54
2021/10/20 05:00:45;;;;;;;10.70;3.60;;;;;;;12.04;77.08;100196.17;113101;1190;24087;-52
2021/10/20 05:03:16;;;;;;;12.20;3.80;;;;;;;12.01;77.43;100195.69;113238;1197;24077;-57
2021/10/20 05:05:47;;;;;;;13.10;3.80;;;;;;;11.98;77.24;100195.54;113123;1198;22432;-56
2021/10/20 05:08:19;;;;;;;13.40;4.40;;;;;;;11.97;77.39;100198.09;113191;1197;22379;-54
2021/10/20 05:10:50;;;;;;;15.80;4.70;;;;;;;11.96;77.32;100188.39;113268;1190;22437;-60
2021/10/20 05:13:21;;;;;;;12.70;4.80;;;;;;;11.95;77.26;100189.20;113373;1190;22412;-60
2021/10/20 05:15:52;;;;;;;15.30;4.40;;;;;;;11.93;77.16;100186.89;113293;1197;22424;-55
2021/10/20 05:18:23;;;;;;;11.50;4.10;;;;;;;11.92;77.30;100187.12;113074;1190;23340;-57
2021/10/20 05:20:54;;;;;;;8.80;3.70;;;;;;;11.90;77.16;100181.72;113454;1196;23583;-57
2021/10/20 05:23:26;;;;;;;18.70;5.30;;;;;;;11.88;77.60;100183.77;113157;1196;22493;-56
2021/10/20 05:25:56;;;;;;;13.80;3.70;;;;;;;11.85;77.50;100186.12;113321;1197;22568;-60
2021/10/20 05:28:27;;;;;;;11.30;3.80;;;;;;;11.83;77.35;100183.05;113628;1190;24079;-59
2021/10/20 05:30:58;;;;;;;15.50;4.90;;;;;;;11.81;77.33;100176.27;113439;1196;25126;-58
2021/10/20 05:33:29;;;;;;;11.60;4.30;;;;;;;11.80;77.44;100172.98;113489;1192;22433;-60
2021/10/20 05:36:00;;;;;;;11.20;4.30;;;;;;;11.79;77.54;100170.90;113367;1198;25123;-58
2021/10/20 05:38:31;;;;;;;14.80;5.00;;;;;;;11.78;77.45;100172.61;113244;1198;22886;-60
2021/10/20 05:41:02;;;;;;;13.20;4.40;;;;;;;11.77;77.56;100168.11;113491;1196;22863;-58
2021/10/20 05:43:33;;;;;;;14.00;4.00;;;;;;;11.77;77.69;100162.06;113359;1190;22453;-58
2021/10/20 05:46:04;;;;;;;13.80;3.80;;;;;;;11.75;77.82;100160.46;113470;1190;22446;-58
2021/10/20 05:48:35;;;;;;;10.70;3.80;;;;;;;11.75;77.82;100157.91;113403;1190;23103;-61
2021/10/20 05:51:07;;;;;;;13.00;4.00;;;;;;;11.75;77.71;100153.55;113260;1198;25112;-60
2021/10/20 05:53:38;;;;;;;14.20;3.90;;;;;;;11.74;77.81;100151.20;113400;1198;23110;-61
2021/10/20 05:56:11;;;;;;;13.70;5.10;;;;;;;11.75;77.78;100154.86;113271;1189;23802;-58
2021/10/20 05:58:42;;;;;;;12.40;4.20;;;;;;;11.75;77.85;100153.48;113978;1190;24060;-62
2021/10/20 06:01:14;;;;;;;13.70;4.50;;;;;;;11.75;77.95;100152.78;113288;1189;22429;-62
2021/10/20 06:03:45;;;;;;;20.30;5.20;;;;;;;11.74;77.90;100157.75;113176;1196;22432;-62
2021/10/20 06:06:16;;;;;;;14.20;4.40;;;;;;;11.73;78.22;100155.35;113189;1190;24047;-61
2021/10/20 06:08:47;;;;;;;14.20;5.10;;;;;;;11.73;78.15;100148.13;116022;1196;24088;-62
2021/10/20 06:11:18;;;;;;;19.50;5.90;;;;;;;11.74;78.14;100142.59;113228;1190;22603;-62
2021/10/20 06:13:49;;;;;;;14.40;4.40;;;;;;;11.74;78.26;100147.58;113211;1198;24087;-61
2021/10/20 06:16:20;;;;;;;14.40;5.00;;;;;;;11.76;78.42;100143.48;113120;1198;22754;-62
2021/10/20 06:18:51;;;;;;;16.60;4.70;;;;;;;11.77;78.46;100141.77;113077;1196;24104;-62
2021/10/20 06:21:22;;;;;;;11.80;3.70;;;;;;;11.79;78.46;100138.14;113138;1190;22412;-62
2021/10/20 06:23:52;;;;;;;16.30;3.80;;;;;;;11.80;78.62;100137.19;113056;1184;24072;-61
2021/10/20 06:26:23;;;;;;;14.40;4.70;;;;;;;11.83;78.54;100140.22;113026;1196;22544;-61
2021/10/20 06:28:55;;;;;;;20.40;6.00;;;;;;;11.84;78.54;100139.48;113160;1197;22416;-62
2021/10/20 06:31:26;;;;;;;15.20;4.80;;;;;;;11.87;78.74;100139.10;113369;1197;25225;-63
2021/10/20 06:33:56;;;;;;;13.80;4.80;;;;;;;11.88;78.75;100142.92;113172;1196;24084;-62
2021/10/20 06:36:32;;;;;;;13.00;4.20;;;;;;;11.91;78.94;100140.21;113158;1196;25061;-62
2021/10/20 06:39:04;;;;;;;14.60;3.90;;;;;;;11.93;79.06;100141.31;113365;1197;25094;-61
2021/10/20 06:41:35;;;;;;;11.70;3.30;;;;;;;11.96;79.29;100140.02;113190;1197;24034;-62
2021/10/20 06:44:07;;;;;;;9.90;2.80;;;;;;;11.99;79.26;100139.05;113176;1196;25138;-62
2021/10/20 06:46:38;;;;;;;9.60;2.40;;;;;;;12.03;79.44;100142.34;113455;1196;22432;-61
2021/10/20 06:49:09;;;;;;;12.10;2.30;;;;;;;12.09;79.66;100141.08;113170;1197;22451;-62
2021/10/20 06:51:41;;;;;;;12.20;2.70;;;;;;;12.13;79.46;100139.56;113078;1196;22426;-63
2021/10/20 06:54:18;;;;;;;7.10;2.30;;;;;;;12.18;79.60;100134.56;113212;1196;25130;-61
2021/10/20 06:56:51;;;;;;;8.80;2.20;;;;;;;12.24;79.66;100136.01;112959;1190;26536;-62
2021/10/20 06:59:22;;;;;;;14.20;3.20;;;;;;;12.29;79.57;100139.52;113798;1189;25931;-62
2021/10/20 07:01:53;;;;;;;11.00;3.00;;;;;;;12.35;79.74;100138.88;113101;1190;25146;-62
2021/10/20 07:04:24;;;;;;;9.40;2.10;;;;;;;12.44;79.72;100139.77;113004;1198;22466;-61
2021/10/20 07:06:55;;;;;;;7.70;2.00;;;;;;;12.51;79.81;100130.89;112989;1190;22434;-62
2021/10/20 07:09:26;;;;;;;7.00;2.00;;;;;;;12.59;79.73;100128.71;113170;1197;25105;-62
2021/10/20 07:11:58;;;;;;;11.10;2.60;;;;;;;12.66;79.84;100123.84;113170;1196;22581;-62
2021/10/20 07:14:29;;;;;;;10.30;2.40;;;;;;;12.75;79.58;100125.70;113251;1196;22439;-64
2021/10/20 07:17:00;;;;;;;10.80;2.20;;;;;;;12.83;79.75;100122.04;113357;1196;22447;-61
2021/10/20 07:19:31;;;;;;;9.60;2.10;;;;;;;12.93;79.67;100108.27;113240;1197;22437;-61
2021/10/20 07:22:02;;;;;;;9.50;1.80;;;;;;;13.02;79.35;100106.19;113105;1190;22419;-62
2021/10/20 07:24:33;;;;;;;10.00;2.20;;;;;;;13.10;79.29;100110.50;113064;1196;22480;-62
2021/10/20 07:27:04;;;;;;;7.70;2.10;;;;;;;13.18;79.24;100111.16;113254;1198;25024;-62
2021/10/20 07:29:35;;;;;;;8.40;1.80;;;;;;;13.27;79.05;100113.11;113130;1197;24947;-62
2021/10/20 07:32:08;;;;;;;9.30;2.10;;;;;;;13.37;78.84;100113.77;113086;1190;25022;-61
2021/10/20 07:34:39;;;;;;;9.20;1.90;;;;;;;13.46;78.89;100117.55;113239;1196;22439;-62
2021/10/20 07:37:10;;;;;;;12.40;1.90;;;;;;;13.55;78.78;100114.03;112974;1197;22426;-63
2021/10/20 07:39:40;;;;;;;10.20;2.10;;;;;;;13.65;78.65;100107.45;113215;1190;22423;-61
2021/10/20 07:42:11;;;;;;;7.70;1.80;;;;;;;13.77;78.52;100103.98;113127;1189;22893;-62
2021/10/20 07:44:43;;;;;;;7.00;1.50;;;;;;;13.92;78.27;100101.63;113179;1198;26370;-62
2021/10/20 07:47:13;;;;;;;9.70;2.10;;;;;;;14.04;78.04;100096.97;113086;1190;22428;-62
2021/10/20 07:49:44;;;;;;;6.50;1.50;;;;;;;14.15;77.79;100093.84;113007;1198;22445;-62
2021/10/20 07:52:17;;;;;;;4.60;1.30;;;;;;;14.25;77.52;100091.91;113047;1196;24187;-62
2021/10/20 07:54:48;;;;;;;6.10;1.30;;;;;;;14.36;77.34;100090.48;113007;1198;24190;-62
2021/10/20 07:57:18;;;;;;;6.20;1.40;;;;;;;14.47;77.18;100092.52;113060;1196;22423;-62
2021/10/20 07:59:51;;;;;;;7.70;1.20;;;;;;;14.56;76.79;100093.55;113017;1198;25097;-62
2021/10/20 08:02:22;;;;;;;6.20;1.30;;;;;;;14.68;76.54;100090.64;112988;1198;22484;-62
2021/10/20 08:04:53;;;;;;;6.00;1.10;;;;;;;14.77;76.38;100083.96;113051;1198;24056;-62
2021/10/20 08:07:25;;;;;;;5.30;1.50;;;;;;;14.86;76.29;100084.83;112997;1198;24114;-62
2021/10/20 08:09:56;;;;;;;5.70;1.20;;;;;;;14.95;76.10;100080.20;113146;1196;22433;-62
2021/10/20 08:12:27;;;;;;;4.30;1.10;;;;;;;15.07;75.83;100079.73;113005;1190;26330;-62
2021/10/20 08:15:00;;;;;;;5.90;1.40;;;;;;;15.18;75.70;100080.27;113078;1198;24085;-62
2021/10/20 08:17:31;;;;;;;6.40;1.40;;;;;;;15.30;75.33;100080.14;113358;1190;22423;-62
2021/10/20 08:20:02;;;;;;;6.00;1.20;;;;;;;15.44;74.76;100077.05;113101;1196;22434;-62
2021/10/20 08:22:33;;;;;;;3.90;1.10;;;;;;;15.55;74.78;100071.39;112971;1190;24050;-62
2021/10/20 08:25:05;;;;;;;6.20;1.20;;;;;;;15.63;74.15;100064.71;112976;1198;24063;-61
2021/10/20 08:27:36;;;;;;;5.80;1.10;;;;;;;15.72;74.04;100058.94;113094;1197;23126;-62
2021/10/20 08:30:16;;;;;;;9.40;1.40;;;;;;;15.81;73.70;100051.11;113222;1190;22614;-63
2021/10/20 08:32:48;;;;;;;6.90;1.40;;;;;;;15.90;73.44;100046.96;113097;1190;24653;-63
2021/10/20 08:35:20;;;;;;;5.80;1.00;;;;;;;15.99;73.19;100048.09;113032;1198;22476;-63
2021/10/20 08:37:56;;;;;;;7.50;1.30;;;;;;;16.07;72.87;100039.90;113123;1193;22471;-62
2021/10/20 08:40:29;;;;;;;3.90;1.00;;;;;;;16.15;72.49;100036.36;113507;1197;24091;-62
2021/10/20 08:43:02;;;;;;;6.70;1.10;;;;;;;16.23;72.33;100032.58;113114;1197;25145;-62
2021/10/20 08:45:34;;;;;;;4.10;1.00;;;;;;;16.30;71.73;100027.15;113093;1184;24059;-62
2021/10/20 08:48:07;;;;;;;5.90;1.10;;;;;;;16.39;71.43;100031.68;113612;1197;22490;-61
2021/10/20 08:50:39;;;;;;;7.50;1.40;;;;;;;16.46;71.20;100030.91;113364;1190;24200;-62
2021/10/20 08:53:10;;;;;;;6.70;1.20;;;;;;;16.53;70.92;100030.88;113519;1196;24116;-62
2021/10/20 08:55:41;;;;;;;6.40;1.10;;;;;;;16.60;70.96;100024.71;113008;1197;22647;-61
2021/10/20 08:58:11;;;;;;;5.50;1.30;;;;;;;16.65;70.53;100025.44;113093;1196;23092;-62
2021/10/20 09:00:42;;;;;;;5.50;1.20;;;;;;;16.72;70.32;100017.17;113126;1196;22436;-62
2021/10/20 09:03:15;;;;;;;5.00;1.10;;;;;;;16.79;69.90;100018.65;113140;1197;25318;-62
2021/10/20 09:05:46;;;;;;;5.50;0.90;;;;;;;16.88;69.52;100011.90;113071;1190;22569;-62
2021/10/20 09:08:16;;;;;;;4.20;0.90;;;;;;;16.98;68.85;100004.05;113047;1190;22423;-62
2021/10/20 09:10:48;;;;;;;4.30;0.90;;;;;;;17.09;68.72;99998.70;112933;1198;22477;-62
2021/10/20 09:13:21;;;;;;;3.90;0.90;;;;;;;17.18;68.36;99996.34;113245;1196;22981;-62
2021/10/20 09:15:52;;;;;;;4.60;0.70;;;;;;;17.27;68.50;99994.84;113382;1197;25302;-62
2021/10/20 09:18:24;;;;;;;5.60;1.30;;;;;;;17.33;67.91;99993.74;113141;1197;22468;-64
2021/10/20 09:20:58;;;;;;;3.80;0.80;;;;;;;17.40;67.17;99992.54;113134;1196;22778;-62
2021/10/20 09:23:32;;;;;;;3.80;0.90;;;;;;;17.46;66.89;99989.73;113254;1198;22449;-62
2021/10/20 09:26:09;;;;;;;4.80;0.80;;;;;;;17.53;66.24;99983.77;113010;1190;23139;-63
2021/10/20 09:28:40;;;;;;;4.00;0.80;;;;;;;17.60;66.47;99982.23;113134;1198;22441;-62
2021/10/20 09:31:12;;;;;;;3.90;1.00;;;;;;;17.67;65.69;99976.29;113114;1198;25104;-62
2021/10/20 09:33:44;;;;;;;7.10;0.90;;;;;;;17.75;65.42;99978.49;113133;1196;22443;-62
2021/10/20 09:36:17;;;;;;;2.90;0.60;;;;;;;17.82;65.39;99979.15;113134;1190;22440;-62
2021/10/20 09:38:49;;;;;;;3.20;0.70;;;;;;;17.90;64.86;99974.16;113183;1196;22440;-62
2021/10/20 09:41:26;;;;;;;6.40;0.70;;;;;;;17.96;64.85;99975.04;113265;1190;25048;-62
2021/10/20 09:43:59;;;;;;;6.50;1.00;;;;;;;17.99;64.10;99974.73;113220;1197;26376;-62
2021/10/20 09:46:38;;;;;;;4.50;0.70;;;;;;;18.03;64.12;99970.47;113610;1198;25407;-62
2021/10/20 09:49:21;;;;;;;5.00;0.60;;;;;;;18.05;63.82;99970.14;113061;1190;22428;-63
2021/10/20 09:51:58;;;;;;;11.60;1.40;;;;;;;18.07;63.69;99971.44;113155;1197;22473;-62
2021/10/20 09:54:34;;;;;;;5.50;0.90;;;;;;;18.09;63.13;99961.18;113209;1198;24055;-62
2021/10/20 09:57:05;;;;;;;4.60;0.80;;;;;;;18.17;62.79;99962.02;113280;1184;25248;-62
2021/10/20 09:59:36;;;;;;;5.20;0.90;;;;;;;18.25;62.79;99962.61;113337;1196;24096;-62
2021/10/20 10:02:10;;;;;;;3.60;0.90;;;;;;;18.30;62.42;99967.35;113178;1196;22415;-62
2021/10/20 10:04:41;;;;;;;7.60;1.00;;;;;;;18.35;62.27;99963.82;113070;1190;22433;-62
2021/10/20 10:07:12;;;;;;;7.00;0.90;;;;;;;18.44;62.13;99959.54;113068;1197;25064;-62
2021/10/20 10:09:43;;;;;;;4.20;0.70;;;;;;;18.48;61.63;99953.98;113312;1190;24172;-63
2021/10/20 10:12:19;;;;;;;7.20;1.00;;;;;;;18.54;61.43;99954.89;113465;1190;22433;-63
2021/10/20 10:14:55;;;;;;;4.60;0.80;;;;;;;18.60;61.03;99947.59;113273;1197;25108;-62
2021/10/20 10:17:29;;;;;;;2.60;0.70;;;;;;;18.65;60.20;99938.30;113191;1197;22455;-62
2021/10/20 10:20:10;;;;;;;3.20;0.70;;;;;;;18.70;60.05;99941.59;113295;1196;22422;-63
2021/10/20 10:22:52;;;;;;;4.10;0.80;;;;;;;18.75;60.22;99936.77;113147;1190;24078;-62
2021/10/20 10:25:37;;;;;;;4.90;0.90;;;;;;;18.81;59.85;99932.71;113109;1198;22448;-62
2021/10/20 10:28:21;;;;;;;2.90;0.70;;;;;;;18.86;59.52;99925.96;113193;1198;22993;-62
2021/10/20 10:30:54;;;;;;;3.90;0.80;;;;;;;18.89;59.87;99920.20;113077;1184;24057;-62
2021/10/20 10:33:27;;;;;;;4.70;0.90;;;;;;;18.92;59.52;99921.88;113699;1197;24057;-62
2021/10/20 10:36:19;;;;;;;6.50;0.80;;;;;;;18.95;59.77;99915.08;113028;1190;22466;-62
2021/10/20 10:38:53;;;;;;;6.70;0.90;;;;;;;18.98;59.36;99910.52;113285;1197;24821;-63
2021/10/20 10:41:27;;;;;;;6.30;0.80;;;;;;;19.00;59.39;99906.14;113381;1197;25213;-62
2021/10/20 10:44:27;;;;;;;4.10;1.00;;;;;;;19.04;59.11;99906.27;113147;1198;24096;-62
2021/10/20 10:47:08;;;;;;;5.20;0.90;;;;;;;19.10;59.26;99899.55;113725;1197;22424;-62
2021/10/20 10:49:44;;;;;;;5.50;0.80;;;;;;;19.18;59.02;99891.46;113204;1197;24125;-62
2021/10/20 10:52:22;;;;;;;3.60;0.80;;;;;;;19.22;58.72;99889.95;113242;1190;22437;-62
2021/10/20 10:55:20;;;;;;;5.90;0.80;;;;;;;19.26;58.46;99884.80;113358;1190;22434;-62
2021/10/20 10:57:56;;;;;;;8.40;1.00;;;;;;;19.32;58.04;99875.60;113228;1197;25065;-62
2021/10/20 11:00:43;;;;;;;5.10;0.70;;;;;;;19.38;57.54;99868.14;113126;1174;23197;-62
2021/10/20 11:03:23;;;;;;;3.70;0.90;;;;;;;19.47;57.11;99852.95;113079;1197;25143;-62
2021/10/20 11:06:03;;;;;;;4.80;0.70;;;;;;;19.53;56.83;99847.48;113172;1197;22531;-62
2021/10/20 11:08:42;;;;;;;5.20;0.80;;;;;;;19.58;56.80;99843.64;113081;1197;22449;-63
2021/10/20 11:11:14;;;;;;;4.50;0.80;;;;;;;19.63;56.55;99834.23;113093;1196;22538;-62
2021/10/20 11:13:45;;;;;;;5.30;1.00;;;;;;;19.68;56.65;99826.92;113112;1196;22432;-62
2021/10/20 11:16:20;;;;;;;5.10;0.90;;;;;;;19.68;56.29;99822.58;113160;1196;22433;-62
2021/10/20 11:18:55;;;;;;;5.50;1.00;;;;;;;19.69;56.11;99817.12;113085;1190;25055;-62
2021/10/20 11:21:27;;;;;;;4.70;0.70;;;;;;;19.72;55.90;99805.76;112909;1193;22438;-63
2021/10/20 11:23:58;;;;;;;4.00;0.80;;;;;;;19.78;55.55;99802.21;112917;1190;24087;-63
2021/10/20 11:26:30;;;;;;;4.60;1.00;;;;;;;19.83;55.61;99799.34;112878;1198;25071;-62
2021/10/20 11:29:09;;;;;;;4.60;0.70;;;;;;;19.84;55.40;99790.52;113103;1198;22453;-63
2021/10/20 11:31:50;;;;;;;7.00;0.80;;;;;;;19.87;55.15;99784.42;113057;1198;22423;-62
2021/10/20 11:34:22;;;;;;;4.70;0.80;;;;;;;19.93;54.83;99785.90;113086;1199;24102;-62
2021/10/20 11:36:54;;;;;;;4.70;0.70;;;;;;;19.99;54.71;99778.89;112954;1193;22432;-63
2021/10/20 11:39:29;;;;;;;3.20;0.80;;;;;;;20.03;54.62;99776.42;112842;1198;22462;-62
2021/10/20 11:42:01;;;;;;;4.20;0.80;;;;;;;20.06;54.14;99773.53;112849;1199;24061;-63